createdAt,value
2019-05-05T00:00:04.871Z,90.52
2019-05-05T00:03:24.901Z,89.70
2019-05-05T00:06:28.531Z,89.39
2019-05-05T00:09:34.755Z,89.58
2019-05-05T00:12:50.861Z,89.86
2019-05-05T00:16:12.764Z,88.68
2019-05-05T00:19:29.838Z,89.41
2019-05-05T00:22:24.550Z,90.27
2019-05-05T00:25:28.455Z,90.72
2019-05-05T00:28:32.324Z,91.51
2019-05-05T00:31:36.276Z,92.96
2019-05-05T00:34:40.607Z,93.61
2019-05-05T00:37:45.127Z,93.91
2019-05-05T00:40:49.041Z,93.66
2019-05-05T00:43:55.212Z,93.66
2019-05-05T00:47:14.516Z,94.17
2019-05-05T00:50:20.222Z,93.21
2019-05-05T00:53:25.097Z,92.72
2019-05-05T00:56:29.035Z,93.48
2019-05-05T00:59:34.808Z,92.75
2019-05-05T01:02:47.968Z,91.45
2019-05-05T01:06:20.044Z,91.92
2019-05-05T01:09:26.233Z,90.83
2019-05-05T01:12:30.356Z,90.76
2019-05-05T01:15:34.591Z,91.78
2019-05-05T01:18:38.436Z,91.92
2019-05-05T01:21:42.553Z,92.91
2019-05-05T01:24:47.149Z,93.50
2019-05-05T01:27:51.334Z,94.44
2019-05-05T01:30:59.152Z,94.65
2019-05-05T01:34:11.536Z,95.08
2019-05-05T01:37:22.939Z,95.02
2019-05-05T01:40:35.608Z,94.58
2019-05-05T01:43:39.891Z,95.72
2019-05-05T01:46:44.488Z,95.25
2019-05-05T01:49:48.653Z,95.32
2019-05-05T01:52:52.887Z,96.00
2019-05-05T01:55:57.620Z,95.56
2019-05-05T01:59:01.740Z,95.59
2019-05-05T02:02:05.993Z,95.87
2019-05-05T02:05:10.198Z,96.25
2019-05-05T02:08:15.344Z,96.39
2019-05-05T02:11:19.407Z,96.60
2019-05-05T02:14:24.689Z,96.36
2019-05-05T02:17:28.652Z,97.55
2019-05-05T02:21:05.180Z,97.37
2019-05-05T02:24:10.072Z,97.50
2019-05-05T02:27:14.711Z,97.39
2019-05-05T02:30:35.895Z,98.06
2019-05-05T02:33:39.379Z,97.81
2019-05-05T02:36:45.967Z,97.37
2019-05-05T02:39:57.899Z,95.95
2019-05-05T02:42:56.165Z,95.52
2019-05-05T02:46:09.906Z,94.39
2019-05-05T02:49:15.435Z,93.46
2019-05-05T02:52:24.420Z,93.57
2019-05-05T02:55:27.788Z,93.15
2019-05-05T02:58:34.741Z,93.71
2019-05-05T03:01:46.677Z,93.22
2019-05-05T03:04:53.648Z,93.38
2019-05-05T03:07:58.647Z,93.14
2019-05-05T03:11:04.069Z,93.88
2019-05-05T03:14:10.660Z,95.91
2019-05-05T03:17:15.349Z,96.76
2019-05-05T03:20:19.406Z,97.54
2019-05-05T03:23:24.019Z,98.03
2019-05-05T03:26:29.075Z,98.51
2019-05-05T03:29:33.659Z,99.05
2019-05-05T03:32:38.182Z,99.35
2019-05-05T03:35:43.639Z,99.78
2019-05-05T03:38:48.061Z,99.56
2019-05-05T03:42:14.679Z,98.71
2019-05-05T03:45:23.668Z,98.83
2019-05-05T03:48:28.146Z,98.61
2019-05-05T03:51:34.527Z,98.14
2019-05-05T03:54:38.568Z,99.00
2019-05-05T03:57:44.495Z,99.30
2019-05-05T04:01:20.471Z,99.96
2019-05-05T04:04:29.381Z,99.45
2019-05-05T04:07:33.551Z,98.68
2019-05-05T04:10:38.652Z,98.30
2019-05-05T04:13:43.779Z,97.77
2019-05-05T04:17:19.032Z,98.33
2019-05-05T04:20:35.256Z,97.85
2019-05-05T04:23:39.490Z,97.89
2019-05-05T04:26:44.033Z,98.67
2019-05-05T04:29:48.048Z,99.20
2019-05-05T04:32:51.892Z,99.26
2019-05-05T04:35:55.942Z,99.44
2019-05-05T04:39:00.342Z,99.20
2019-05-05T04:42:04.923Z,99.26
2019-05-05T04:45:09.094Z,99.34
2019-05-05T04:48:35.077Z,99.53
2019-05-05T04:51:49.527Z,98.63
2019-05-05T04:54:51.197Z,98.37
2019-05-05T04:57:55.090Z,98.13
2019-05-05T05:00:59.208Z,97.68
2019-05-05T05:04:24.972Z,97.54
2019-05-05T05:07:28.837Z,97.53
2019-05-05T05:10:34.572Z,96.82
2019-05-05T05:13:39.383Z,96.05
2019-05-05T05:16:43.790Z,95.59
2019-05-05T05:19:47.996Z,95.43
2019-05-05T05:22:51.856Z,95.71
2019-05-05T05:25:56.108Z,93.97
2019-05-05T05:29:00.499Z,93.98
2019-05-05T05:32:04.399Z,93.62
2019-05-05T05:35:08.784Z,93.66
2019-05-05T05:38:14.025Z,92.89
2019-05-05T05:41:37.146Z,93.24
2019-05-05T05:45:00.019Z,93.12
2019-05-05T05:48:14.962Z,92.25
2019-05-05T05:51:21.106Z,92.03
2019-05-05T05:54:24.961Z,91.00
2019-05-05T05:57:28.876Z,91.42
2019-05-05T06:00:34.400Z,91.40
2019-05-05T06:03:38.427Z,91.29
2019-05-05T06:06:43.905Z,90.90
2019-05-05T06:09:48.226Z,90.51
2019-05-05T06:12:54.140Z,89.89
2019-05-05T06:15:58.420Z,89.54
2019-05-05T06:19:03.625Z,89.20
2019-05-05T06:22:08.567Z,89.46
2019-05-05T06:25:15.902Z,88.83
2019-05-05T06:28:18.112Z,88.96
2019-05-05T06:31:21.905Z,87.36
2019-05-05T06:34:26.292Z,85.85
2019-05-05T06:37:30.518Z,86.00
2019-05-05T06:40:46.368Z,84.06
2019-05-05T06:44:19.850Z,85.76
2019-05-05T06:47:28.087Z,84.24
2019-05-05T06:50:31.863Z,84.43
2019-05-05T06:53:35.849Z,85.11
2019-05-05T06:56:40.021Z,82.84
2019-05-05T06:59:44.051Z,82.27
2019-05-05T07:02:47.881Z,83.21
2019-05-05T07:05:53.935Z,81.67
2019-05-05T07:08:57.832Z,81.89
2019-05-05T07:12:01.850Z,81.91
2019-05-05T07:15:05.967Z,82.25
2019-05-05T07:18:10.301Z,80.06
2019-05-05T07:21:14.662Z,81.15
2019-05-05T07:24:19.019Z,80.93
2019-05-05T07:27:24.317Z,81.28
2019-05-05T07:30:28.718Z,80.28
2019-05-05T07:33:34.650Z,79.20
2019-05-05T07:36:45.245Z,78.44
2019-05-05T07:39:49.574Z,79.50
2019-05-05T07:42:54.054Z,77.56
2019-05-05T07:45:57.957Z,76.45
2019-05-05T07:49:03.743Z,76.14
2019-05-05T07:52:07.679Z,74.30
2019-05-05T07:55:14.222Z,72.94
2019-05-05T07:58:17.887Z,71.24
2019-05-05T08:01:21.956Z,70.37
2019-05-05T08:04:25.862Z,68.86
2019-05-05T08:07:29.959Z,70.34
2019-05-05T08:10:34.473Z,69.11
2019-05-05T08:13:38.777Z,66.94
2019-05-05T08:17:03.742Z,64.94
2019-05-05T08:20:14.172Z,62.68
2019-05-05T08:23:35.520Z,62.33
2019-05-05T08:26:46.770Z,62.84
2019-05-05T08:29:54.330Z,64.21
2019-05-05T08:32:58.414Z,59.10
2019-05-05T08:36:04.618Z,60.05
2019-05-05T08:39:08.610Z,58.72
2019-05-05T08:42:14.388Z,57.87
2019-05-05T08:45:18.260Z,59.63
2019-05-05T08:48:24.515Z,52.69
2019-05-05T08:51:27.756Z,52.94
2019-05-05T08:54:31.829Z,52.41
2019-05-05T08:57:35.739Z,53.20
2019-05-05T09:00:39.662Z,53.92
2019-05-05T09:03:44.460Z,52.63
2019-05-05T09:06:48.433Z,52.84
2019-05-05T09:09:54.494Z,52.55
2019-05-05T09:12:58.003Z,52.84
2019-05-05T09:16:03.736Z,52.74
2019-05-05T09:19:14.525Z,48.99
2019-05-05T09:22:17.814Z,45.34
2019-05-05T09:25:40.736Z,44.64
2019-05-05T09:29:09.675Z,44.22
2019-05-05T09:32:14.149Z,43.26
2019-05-05T09:35:18.069Z,43.75
2019-05-05T09:38:23.858Z,43.10
2019-05-05T09:41:27.770Z,43.69
2019-05-05T09:44:31.783Z,44.54
2019-05-05T09:47:35.606Z,44.76
2019-05-05T09:50:39.495Z,46.49
2019-05-05T09:53:44.810Z,43.87
2019-05-05T09:56:48.938Z,43.22
2019-05-05T09:59:55.397Z,43.43
2019-05-05T10:02:59.582Z,43.32
2019-05-05T10:06:05.024Z,46.18
2019-05-05T10:09:11.140Z,46.90
2019-05-05T10:12:15.088Z,46.82
2019-05-05T10:15:19.269Z,45.69
2019-05-05T10:18:25.386Z,46.44
2019-05-05T10:21:29.130Z,44.84
2019-05-05T10:24:37.905Z,47.14
2019-05-05T10:27:47.384Z,46.85
2019-05-05T10:30:48.240Z,48.36
2019-05-05T10:33:56.456Z,48.38
2019-05-05T10:37:00.322Z,44.83
2019-05-05T10:40:05.460Z,42.60
2019-05-05T10:43:09.321Z,41.34
2019-05-05T10:46:14.378Z,43.01
2019-05-05T10:49:19.197Z,43.83
2019-05-05T10:52:23.008Z,45.75
2019-05-05T10:55:26.913Z,45.32
2019-05-05T10:58:30.726Z,45.58
2019-05-05T11:01:34.832Z,46.01
2019-05-05T11:04:38.741Z,44.30
2019-05-05T11:07:43.132Z,44.81
2019-05-05T11:10:47.189Z,45.46
2019-05-05T11:13:51.070Z,45.73
2019-05-05T11:16:55.353Z,46.80
2019-05-05T11:19:59.290Z,45.87
2019-05-05T11:23:04.857Z,44.60
2019-05-05T11:26:08.722Z,45.22
2019-05-05T11:29:13.558Z,47.19
2019-05-05T11:32:36.862Z,47.93
2019-05-05T11:35:56.770Z,45.71
2019-05-05T11:39:00.880Z,46.72
2019-05-05T11:42:04.758Z,44.60
2019-05-05T11:45:08.735Z,45.61
2019-05-05T11:48:14.573Z,46.65
2019-05-05T11:51:18.535Z,48.43
2019-05-05T11:54:24.338Z,47.71
2019-05-05T11:57:27.910Z,46.22
2019-05-05T12:00:31.835Z,46.77
2019-05-05T12:03:37.811Z,46.38
2019-05-05T12:06:41.511Z,44.83
2019-05-05T12:09:54.860Z,46.61
2019-05-05T12:12:59.191Z,45.41
2019-05-05T12:16:05.214Z,46.55
2019-05-05T12:19:13.763Z,46.36
2019-05-05T12:22:17.727Z,46.97
2019-05-05T12:25:39.002Z,47.13
2019-05-05T12:28:49.517Z,47.69
2019-05-05T12:31:53.843Z,47.09
2019-05-05T12:34:58.109Z,49.18
2019-05-05T12:38:02.251Z,47.95
2019-05-05T12:41:06.191Z,47.69
2019-05-05T12:44:14.254Z,47.83
2019-05-05T12:47:29.987Z,45.62
2019-05-05T12:50:34.102Z,45.74
2019-05-05T12:53:38.014Z,44.06
2019-05-05T12:56:43.963Z,44.81
2019-05-05T12:59:47.717Z,45.82
2019-05-05T13:02:53.694Z,46.86
2019-05-05T13:05:57.291Z,47.14
2019-05-05T13:09:01.428Z,47.02
2019-05-05T13:12:05.629Z,47.20
2019-05-05T13:15:09.702Z,46.40
2019-05-05T13:18:14.048Z,44.83
2019-05-05T13:21:27.857Z,46.11
2019-05-05T13:24:54.067Z,45.83
2019-05-05T13:27:58.298Z,46.68
2019-05-05T13:31:02.180Z,45.92
2019-05-05T13:34:06.500Z,45.43
2019-05-05T13:37:10.662Z,45.55
2019-05-05T13:40:14.659Z,44.79
2019-05-05T13:43:18.571Z,43.51
2019-05-05T13:46:30.039Z,44.27
2019-05-05T13:49:38.208Z,44.68
2019-05-05T13:52:44.201Z,44.93
2019-05-05T13:55:48.099Z,44.57
2019-05-05T13:58:52.205Z,41.69
2019-05-05T14:01:56.463Z,40.73
2019-05-05T14:05:00.292Z,40.54
2019-05-05T14:08:04.366Z,39.57
2019-05-05T14:11:08.607Z,39.54
2019-05-05T14:14:13.793Z,39.48
2019-05-05T14:17:18.507Z,39.01
2019-05-05T14:20:23.979Z,41.02
2019-05-05T14:23:29.206Z,42.03
2019-05-05T14:26:35.322Z,40.42
2019-05-05T14:29:53.098Z,40.50
2019-05-05T14:32:57.172Z,41.35
2019-05-05T14:36:19.000Z,41.44
2019-05-05T14:39:23.914Z,42.47
2019-05-05T14:42:28.009Z,43.74
2019-05-05T14:45:34.001Z,42.86
2019-05-05T14:48:38.033Z,43.64
2019-05-05T14:51:41.933Z,44.14
2019-05-05T14:54:46.083Z,42.87
2019-05-05T14:57:50.614Z,43.44
2019-05-05T15:00:54.750Z,43.49
2019-05-05T15:03:58.838Z,43.82
2019-05-05T15:07:10.803Z,43.25
2019-05-05T15:10:34.340Z,43.68
2019-05-05T15:13:38.443Z,43.88
2019-05-05T15:16:43.757Z,43.04
2019-05-05T15:19:47.675Z,43.36
2019-05-05T15:22:51.465Z,43.15
2019-05-05T15:25:55.597Z,44.21
2019-05-05T15:29:01.703Z,44.02
2019-05-05T15:32:05.986Z,43.46
2019-05-05T15:35:10.367Z,42.37
2019-05-05T15:38:14.342Z,42.36
2019-05-05T15:41:18.247Z,42.97
2019-05-05T15:44:24.137Z,44.04
2019-05-05T15:47:28.680Z,43.82
2019-05-05T15:50:32.903Z,43.38
2019-05-05T15:53:36.708Z,43.26
2019-05-05T15:56:41.068Z,42.96
2019-05-05T15:59:44.938Z,43.16
2019-05-05T16:02:48.839Z,42.57
2019-05-05T16:05:54.343Z,40.86
2019-05-05T16:08:58.355Z,41.13
2019-05-05T16:12:03.776Z,40.34
2019-05-05T16:15:21.904Z,40.55
2019-05-05T16:18:33.808Z,39.75
2019-05-05T16:21:47.981Z,38.95
2019-05-05T16:25:13.803Z,38.96
2019-05-05T16:28:17.398Z,40.12
2019-05-05T16:31:23.604Z,41.38
2019-05-05T16:34:27.844Z,41.23
2019-05-05T16:37:33.509Z,41.50
2019-05-05T16:40:37.467Z,41.77
2019-05-05T16:43:41.431Z,42.45
2019-05-05T16:46:45.309Z,41.91
2019-05-05T16:49:49.539Z,42.68
2019-05-05T16:52:59.317Z,42.82
2019-05-05T16:56:04.533Z,43.03
2019-05-05T16:59:08.646Z,42.64
2019-05-05T17:02:13.929Z,42.24
2019-05-05T17:05:18.176Z,43.34
2019-05-05T17:08:24.449Z,43.53
2019-05-05T17:11:28.437Z,43.39
2019-05-05T17:14:40.401Z,43.33
2019-05-05T17:18:15.359Z,43.48
2019-05-05T17:21:22.127Z,42.42
2019-05-05T17:24:26.048Z,42.50
2019-05-05T17:27:30.691Z,43.12
2019-05-05T17:30:34.656Z,42.76
2019-05-05T17:33:38.660Z,43.52
2019-05-05T17:36:42.727Z,42.70
2019-05-05T17:39:55.388Z,42.27
2019-05-05T17:43:25.179Z,42.72
2019-05-05T17:46:26.957Z,42.82
2019-05-05T17:49:50.337Z,43.54
2019-05-05T17:53:11.548Z,43.60
2019-05-05T17:56:15.688Z,43.72
2019-05-05T17:59:19.568Z,44.51
2019-05-05T18:02:24.125Z,43.50
2019-05-05T18:05:46.222Z,43.90
2019-05-05T18:08:53.968Z,44.38
2019-05-05T18:12:26.513Z,45.03
2019-05-05T18:15:49.671Z,44.54
2019-05-05T18:18:54.849Z,45.11
2019-05-05T18:21:59.351Z,45.83
2019-05-05T18:25:03.809Z,46.27
2019-05-05T18:28:17.073Z,46.63
2019-05-05T18:31:13.925Z,47.18
2019-05-05T18:34:17.848Z,47.97
2019-05-05T18:37:24.040Z,49.02
2019-05-05T18:40:27.820Z,49.28
2019-05-05T18:43:38.929Z,50.10
2019-05-05T18:46:43.573Z,51.04
2019-05-05T18:49:48.081Z,50.42
2019-05-05T18:52:53.877Z,51.78
2019-05-05T18:55:57.672Z,51.75
2019-05-05T18:59:04.625Z,52.11
2019-05-05T19:02:17.346Z,52.17
2019-05-05T19:05:44.076Z,52.75
2019-05-05T19:08:54.459Z,53.26
2019-05-05T19:11:56.891Z,53.57
2019-05-05T19:15:01.212Z,53.58
2019-05-05T19:18:06.598Z,54.56
2019-05-05T19:21:25.437Z,55.57
2019-05-05T19:24:30.628Z,56.02
2019-05-05T19:27:34.790Z,57.17
2019-05-05T19:30:39.050Z,56.98
2019-05-05T19:33:43.026Z,57.61
2019-05-05T19:36:47.331Z,58.54
2019-05-05T19:39:51.449Z,58.76
2019-05-05T19:42:55.270Z,59.66
2019-05-05T19:45:59.510Z,59.37
2019-05-05T19:49:16.777Z,58.98
2019-05-05T19:52:21.133Z,59.76
2019-05-05T19:55:25.222Z,60.19
2019-05-05T19:58:29.201Z,60.95
2019-05-05T20:01:37.521Z,61.41
2019-05-05T20:04:38.765Z,62.12
2019-05-05T20:07:44.050Z,62.79
2019-05-05T20:10:47.868Z,62.76
2019-05-05T20:14:04.736Z,62.62
2019-05-05T20:17:15.822Z,62.76
2019-05-05T20:20:19.832Z,62.44
2019-05-05T20:23:24.412Z,63.65
2019-05-05T20:26:28.321Z,63.73
2019-05-05T20:29:35.048Z,63.88
2019-05-05T20:32:59.888Z,65.20
2019-05-05T20:36:14.512Z,65.51
2019-05-05T20:39:18.525Z,65.87
2019-05-05T20:42:22.686Z,66.12
2019-05-05T20:45:28.766Z,67.12
2019-05-05T20:48:35.091Z,67.87
2019-05-05T20:51:38.954Z,67.63
2019-05-05T20:54:44.088Z,67.73
2019-05-05T20:57:49.230Z,67.94
2019-05-05T21:00:54.911Z,68.54
2019-05-05T21:03:58.738Z,69.66
2019-05-05T21:07:04.402Z,68.80
2019-05-05T21:10:08.629Z,68.92
2019-05-05T21:13:14.370Z,68.78
2019-05-05T21:16:18.169Z,69.29
2019-05-05T21:19:22.225Z,69.89
2019-05-05T21:22:31.298Z,69.84
2019-05-05T21:25:37.326Z,68.56
2019-05-05T21:28:41.286Z,69.10
2019-05-05T21:31:45.326Z,68.80
2019-05-05T21:34:49.269Z,69.79
2019-05-05T21:37:54.362Z,70.19
2019-05-05T21:40:58.995Z,70.28
2019-05-05T21:44:03.754Z,68.78
2019-05-05T21:47:07.981Z,69.90
2019-05-05T21:50:14.472Z,70.61
2019-05-05T21:53:24.725Z,71.53
2019-05-05T21:56:37.188Z,70.97
2019-05-05T21:59:55.261Z,71.11
2019-05-05T22:02:47.936Z,70.86
2019-05-05T22:05:53.871Z,71.40
2019-05-05T22:08:57.871Z,71.66
2019-05-05T22:12:04.061Z,72.36
2019-05-05T22:15:07.901Z,72.77
2019-05-05T22:18:14.314Z,72.69
2019-05-05T22:21:35.687Z,72.32
2019-05-05T22:24:38.192Z,72.73
2019-05-05T22:27:44.006Z,72.07
2019-05-05T22:30:48.004Z,71.32
2019-05-05T22:33:51.923Z,71.15
2019-05-05T22:36:55.968Z,71.07
2019-05-05T22:40:00.291Z,71.08
2019-05-05T22:43:04.660Z,70.95
2019-05-05T22:46:08.495Z,70.82
2019-05-05T22:49:14.573Z,72.19
2019-05-05T22:52:18.490Z,72.81
2019-05-05T22:55:24.580Z,72.99
2019-05-05T22:58:28.717Z,72.81
2019-05-05T23:01:32.872Z,72.71
2019-05-05T23:04:47.712Z,72.86
2019-05-05T23:07:51.979Z,73.69
2019-05-05T23:10:55.807Z,74.03
2019-05-05T23:14:17.872Z,74.68
2019-05-05T23:17:40.815Z,75.51
2019-05-05T23:21:08.698Z,75.53
2019-05-05T23:24:34.509Z,76.23
2019-05-05T23:27:47.866Z,76.45
2019-05-05T23:30:54.562Z,76.24
2019-05-05T23:33:58.065Z,76.27
2019-05-05T23:37:04.227Z,75.52
2019-05-05T23:40:08.605Z,75.83
2019-05-05T23:43:13.954Z,76.14
2019-05-05T23:46:17.989Z,76.38
2019-05-05T23:49:24.027Z,77.10
2019-05-05T23:52:27.815Z,77.34
2019-05-05T23:55:31.887Z,77.76
2019-05-05T23:58:35.783Z,78.07
